sensor_id;sensor_type;location;lat;lon;timestamp;P1;durP1;ratioP1;P2;durP2;ratioP2
33279;SDS011;20403;43.114;12.434;2023-07-31T00:01:54;3.60;;;2.03;;
33279;SDS011;20403;43.114;12.434;2023-07-31T00:04:19;7.45;;;2.28;;
33279;SDS011;20403;43.114;12.434;2023-07-31T00:06:45;5.30;;;2.17;;
33279;SDS011;20403;43.114;12.434;2023-07-31T00:09:10;3.90;;;1.90;;
33279;SDS011;20403;43.114;12.434;2023-07-31T00:11:36;3.63;;;2.00;;
33279;SDS011;20403;43.114;12.434;2023-07-31T00:14:01;2.35;;;1.65;;
33279;SDS011;20403;43.114;12.434;2023-07-31T00:16:26;5.15;;;2.35;;
33279;SDS011;20403;43.114;12.434;2023-07-31T00:18:52;4.13;;;2.30;;
33279;SDS011;20403;43.114;12.434;2023-07-31T00:21:18;2.63;;;1.88;;
33279;SDS011;20403;43.114;12.434;2023-07-31T00:23:43;3.17;;;2.13;;
33279;SDS011;20403;43.114;12.434;2023-07-31T00:26:08;6.28;;;1.98;;
33279;SDS011;20403;43.114;12.434;2023-07-31T00:28:34;4.68;;;2.20;;
33279;SDS011;20403;43.114;12.434;2023-07-31T00:30:59;3.88;;;2.13;;
33279;SDS011;20403;43.114;12.434;2023-07-31T00:33:25;3.45;;;2.10;;
33279;SDS011;20403;43.114;12.434;2023-07-31T00:35:50;3.95;;;2.05;;
33279;SDS011;20403;43.114;12.434;2023-07-31T00:38:15;2.55;;;1.85;;
33279;SDS011;20403;43.114;12.434;2023-07-31T00:40:41;4.80;;;2.20;;
33279;SDS011;20403;43.114;12.434;2023-07-31T00:43:06;4.35;;;1.83;;
33279;SDS011;20403;43.114;12.434;2023-07-31T00:45:32;4.25;;;2.10;;
33279;SDS011;20403;43.114;12.434;2023-07-31T00:47:58;5.28;;;2.13;;
33279;SDS011;20403;43.114;12.434;2023-07-31T00:50:24;3.67;;;2.05;;
33279;SDS011;20403;43.114;12.434;2023-07-31T00:52:50;7.03;;;2.20;;
33279;SDS011;20403;43.114;12.434;2023-07-31T00:55:16;4.50;;;2.25;;
33279;SDS011;20403;43.114;12.434;2023-07-31T00:57:42;5.80;;;2.47;;
33279;SDS011;20403;43.114;12.434;2023-07-31T01:00:08;5.65;;;2.13;;
33279;SDS011;20403;43.114;12.434;2023-07-31T01:02:34;6.07;;;2.05;;
33279;SDS011;20403;43.114;12.434;2023-07-31T01:05:01;5.68;;;2.17;;
33279;SDS011;20403;43.114;12.434;2023-07-31T01:08:12;4.40;;;2.13;;
33279;SDS011;20403;43.114;12.434;2023-07-31T01:13:06;4.03;;;2.38;;
33279;SDS011;20403;43.114;12.434;2023-07-31T01:15:33;6.93;;;2.60;;
33279;SDS011;20403;43.114;12.434;2023-07-31T01:17:58;9.20;;;2.20;;
33279;SDS011;20403;43.114;12.434;2023-07-31T01:20:24;4.20;;;2.15;;
33279;SDS011;20403;43.114;12.434;2023-07-31T01:28:04;3.53;;;2.22;;
33279;SDS011;20403;43.114;12.434;2023-07-31T01:30:33;3.13;;;1.83;;
33279;SDS011;20403;43.114;12.434;2023-07-31T01:33:02;2.88;;;2.20;;
33279;SDS011;20403;43.114;12.434;2023-07-31T01:35:34;5.65;;;2.20;;
33279;SDS011;20403;43.114;12.434;2023-07-31T01:38:01;3.92;;;2.08;;
33279;SDS011;20403;43.114;12.434;2023-07-31T01:40:26;4.38;;;2.58;;
33279;SDS011;20403;43.114;12.434;2023-07-31T01:42:52;3.67;;;1.80;;
33279;SDS011;20403;43.114;12.434;2023-07-31T01:45:17;3.03;;;2.00;;
33279;SDS011;20403;43.114;12.434;2023-07-31T01:47:43;4.40;;;2.20;;
33279;SDS011;20403;43.114;12.434;2023-07-31T01:50:08;3.03;;;1.80;;
33279;SDS011;20403;43.114;12.434;2023-07-31T01:52:34;5.05;;;2.20;;
33279;SDS011;20403;43.114;12.434;2023-07-31T01:54:59;6.70;;;2.17;;
33279;SDS011;20403;43.114;12.434;2023-07-31T01:57:25;3.45;;;2.13;;
33279;SDS011;20403;43.114;12.434;2023-07-31T01:59:50;4.15;;;2.13;;
33279;SDS011;20403;43.114;12.434;2023-07-31T02:02:18;5.75;;;2.08;;
33279;SDS011;20403;43.114;12.434;2023-07-31T02:04:43;5.00;;;2.25;;
33279;SDS011;20403;43.114;12.434;2023-07-31T02:07:09;4.07;;;1.98;;
33279;SDS011;20403;43.114;12.434;2023-07-31T02:09:34;2.90;;;1.88;;
33279;SDS011;20403;43.114;12.434;2023-07-31T02:12:00;5.47;;;1.95;;
33279;SDS011;20403;43.114;12.434;2023-07-31T02:14:25;4.25;;;2.00;;
33279;SDS011;20403;43.114;12.434;2023-07-31T02:16:50;7.03;;;1.85;;
33279;SDS011;20403;43.114;12.434;2023-07-31T02:19:16;3.90;;;2.00;;
33279;SDS011;20403;43.114;12.434;2023-07-31T02:21:41;4.25;;;1.90;;
33279;SDS011;20403;43.114;12.434;2023-07-31T02:24:06;3.42;;;2.17;;
33279;SDS011;20403;43.114;12.434;2023-07-31T02:26:32;4.53;;;2.05;;
33279;SDS011;20403;43.114;12.434;2023-07-31T02:28:57;5.05;;;2.30;;
33279;SDS011;20403;43.114;12.434;2023-07-31T02:31:23;8.07;;;2.00;;
33279;SDS011;20403;43.114;12.434;2023-07-31T02:33:48;7.45;;;2.20;;
33279;SDS011;20403;43.114;12.434;2023-07-31T02:36:13;3.40;;;1.90;;
33279;SDS011;20403;43.114;12.434;2023-07-31T02:38:39;5.20;;;2.33;;
33279;SDS011;20403;43.114;12.434;2023-07-31T02:41:05;3.08;;;1.92;;
33279;SDS011;20403;43.114;12.434;2023-07-31T02:43:31;6.13;;;2.20;;
33279;SDS011;20403;43.114;12.434;2023-07-31T02:45:56;8.02;;;2.42;;
33279;SDS011;20403;43.114;12.434;2023-07-31T02:48:22;7.70;;;1.75;;
33279;SDS011;20403;43.114;12.434;2023-07-31T02:50:47;4.95;;;2.08;;
33279;SDS011;20403;43.114;12.434;2023-07-31T02:53:13;3.45;;;1.73;;
33279;SDS011;20403;43.114;12.434;2023-07-31T02:55:38;6.95;;;2.03;;
33279;SDS011;20403;43.114;12.434;2023-07-31T02:58:04;5.05;;;2.13;;
33279;SDS011;20403;43.114;12.434;2023-07-31T03:00:29;4.88;;;2.30;;
33279;SDS011;20403;43.114;12.434;2023-07-31T03:02:55;4.13;;;2.10;;
33279;SDS011;20403;43.114;12.434;2023-07-31T03:05:20;8.30;;;2.35;;
33279;SDS011;20403;43.114;12.434;2023-07-31T03:07:46;3.95;;;2.20;;
33279;SDS011;20403;43.114;12.434;2023-07-31T03:10:11;3.75;;;1.73;;
33279;SDS011;20403;43.114;12.434;2023-07-31T03:12:37;5.38;;;2.35;;
33279;SDS011;20403;43.114;12.434;2023-07-31T03:15:03;4.78;;;2.38;;
33279;SDS011;20403;43.114;12.434;2023-07-31T03:17:28;5.50;;;2.13;;
33279;SDS011;20403;43.114;12.434;2023-07-31T03:19:54;3.63;;;2.00;;
33279;SDS011;20403;43.114;12.434;2023-07-31T03:22:19;3.85;;;2.40;;
33279;SDS011;20403;43.114;12.434;2023-07-31T03:24:44;5.57;;;2.60;;
33279;SDS011;20403;43.114;12.434;2023-07-31T03:27:10;2.83;;;2.22;;
33279;SDS011;20403;43.114;12.434;2023-07-31T03:29:35;3.42;;;1.75;;
33279;SDS011;20403;43.114;12.434;2023-07-31T03:32:01;4.90;;;2.75;;
33279;SDS011;20403;43.114;12.434;2023-07-31T03:34:26;5.38;;;2.40;;
33279;SDS011;20403;43.114;12.434;2023-07-31T03:36:51;9.18;;;2.70;;
33279;SDS011;20403;43.114;12.434;2023-07-31T03:39:17;3.03;;;1.98;;
33279;SDS011;20403;43.114;12.434;2023-07-31T03:41:43;4.63;;;2.17;;
33279;SDS011;20403;43.114;12.434;2023-07-31T03:44:08;3.88;;;1.80;;
33279;SDS011;20403;43.114;12.434;2023-07-31T03:46:33;8.60;;;2.50;;
33279;SDS011;20403;43.114;12.434;2023-07-31T03:48:59;5.47;;;2.30;;
33279;SDS011;20403;43.114;12.434;2023-07-31T03:51:25;3.58;;;2.25;;
33279;SDS011;20403;43.114;12.434;2023-07-31T03:53:50;4.82;;;2.30;;
33279;SDS011;20403;43.114;12.434;2023-07-31T03:56:16;5.65;;;1.85;;
33279;SDS011;20403;43.114;12.434;2023-07-31T03:58:41;4.03;;;2.50;;
33279;SDS011;20403;43.114;12.434;2023-07-31T04:01:06;6.22;;;2.33;;
33279;SDS011;20403;43.114;12.434;2023-07-31T04:03:32;3.78;;;2.13;;
33279;SDS011;20403;43.114;12.434;2023-07-31T04:05:57;5.85;;;1.90;;
33279;SDS011;20403;43.114;12.434;2023-07-31T04:08:23;4.90;;;2.05;;
33279;SDS011;20403;43.114;12.434;2023-07-31T04:10:48;4.68;;;2.20;;
33279;SDS011;20403;43.114;12.434;2023-07-31T04:13:14;6.53;;;1.80;;
33279;SDS011;20403;43.114;12.434;2023-07-31T04:15:39;3.97;;;2.28;;
33279;SDS011;20403;43.114;12.434;2023-07-31T04:18:05;5.95;;;2.17;;
33279;SDS011;20403;43.114;12.434;2023-07-31T04:20:30;5.13;;;2.20;;
33279;SDS011;20403;43.114;12.434;2023-07-31T04:22:56;4.10;;;2.30;;
33279;SDS011;20403;43.114;12.434;2023-07-31T04:25:21;5.13;;;2.17;;
33279;SDS011;20403;43.114;12.434;2023-07-31T04:27:47;3.63;;;2.45;;
33279;SDS011;20403;43.114;12.434;2023-07-31T04:30:12;4.32;;;2.30;;
33279;SDS011;20403;43.114;12.434;2023-07-31T04:32:38;4.13;;;2.15;;
33279;SDS011;20403;43.114;12.434;2023-07-31T04:35:03;10.82;;;2.72;;
33279;SDS011;20403;43.114;12.434;2023-07-31T04:37:29;4.53;;;2.22;;
33279;SDS011;20403;43.114;12.434;2023-07-31T04:39:54;4.13;;;2.40;;
33279;SDS011;20403;43.114;12.434;2023-07-31T04:42:20;5.55;;;2.58;;
33279;SDS011;20403;43.114;12.434;2023-07-31T04:44:45;5.07;;;2.53;;
33279;SDS011;20403;43.114;12.434;2023-07-31T04:47:10;6.85;;;3.47;;
33279;SDS011;20403;43.114;12.434;2023-07-31T04:49:36;5.85;;;2.47;;
33279;SDS011;20403;43.114;12.434;2023-07-31T04:52:01;20.10;;;4.30;;
33279;SDS011;20403;43.114;12.434;2023-07-31T04:54:27;7.20;;;2.83;;
33279;SDS011;20403;43.114;12.434;2023-07-31T04:56:52;7.28;;;2.35;;
33279;SDS011;20403;43.114;12.434;2023-07-31T04:59:18;4.60;;;2.20;;
33279;SDS011;20403;43.114;12.434;2023-07-31T05:01:43;4.78;;;2.35;;
33279;SDS011;20403;43.114;12.434;2023-07-31T05:04:12;3.83;;;2.00;;
33279;SDS011;20403;43.114;12.434;2023-07-31T05:06:38;3.95;;;2.30;;
33279;SDS011;20403;43.114;12.434;2023-07-31T05:09:03;4.22;;;2.35;;
33279;SDS011;20403;43.114;12.434;2023-07-31T05:11:29;7.35;;;2.38;;
33279;SDS011;20403;43.114;12.434;2023-07-31T05:13:54;6.75;;;2.58;;
33279;SDS011;20403;43.114;12.434;2023-07-31T05:16:19;6.30;;;2.60;;
33279;SDS011;20403;43.114;12.434;2023-07-31T05:18:45;6.40;;;2.58;;
33279;SDS011;20403;43.114;12.434;2023-07-31T05:21:10;8.95;;;3.20;;
33279;SDS011;20403;43.114;12.434;2023-07-31T05:23:36;7.72;;;2.95;;
33279;SDS011;20403;43.114;12.434;2023-07-31T05:26:04;11.02;;;3.25;;
33279;SDS011;20403;43.114;12.434;2023-07-31T05:28:30;6.05;;;3.08;;
33279;SDS011;20403;43.114;12.434;2023-07-31T05:30:59;9.98;;;3.10;;
33279;SDS011;20403;43.114;12.434;2023-07-31T05:33:26;12.85;;;3.10;;
33279;SDS011;20403;43.114;12.434;2023-07-31T05:35:51;7.18;;;2.83;;
33279;SDS011;20403;43.114;12.434;2023-07-31T05:38:17;11.75;;;3.05;;
33279;SDS011;20403;43.114;12.434;2023-07-31T05:40:43;12.57;;;3.35;;
33279;SDS011;20403;43.114;12.434;2023-07-31T05:43:08;14.07;;;3.08;;
33279;SDS011;20403;43.114;12.434;2023-07-31T05:45:34;7.25;;;2.67;;
33279;SDS011;20403;43.114;12.434;2023-07-31T05:48:00;10.50;;;3.47;;
33279;SDS011;20403;43.114;12.434;2023-07-31T05:50:25;10.85;;;2.78;;
33279;SDS011;20403;43.114;12.434;2023-07-31T05:52:51;9.98;;;3.03;;
33279;SDS011;20403;43.114;12.434;2023-07-31T05:55:17;5.20;;;2.53;;
33279;SDS011;20403;43.114;12.434;2023-07-31T05:57:42;7.93;;;3.42;;
33279;SDS011;20403;43.114;12.434;2023-07-31T06:00:08;7.38;;;3.22;;
33279;SDS011;20403;43.114;12.434;2023-07-31T06:02:34;5.70;;;2.80;;
33279;SDS011;20403;43.114;12.434;2023-07-31T06:05:02;6.88;;;2.75;;
33279;SDS011;20403;43.114;12.434;2023-07-31T06:07:30;13.23;;;2.72;;
33279;SDS011;20403;43.114;12.434;2023-07-31T06:09:56;7.63;;;2.92;;
33279;SDS011;20403;43.114;12.434;2023-07-31T06:12:26;7.20;;;2.90;;
33279;SDS011;20403;43.114;12.434;2023-07-31T06:14:52;6.57;;;3.42;;
33279;SDS011;20403;43.114;12.434;2023-07-31T06:17:17;8.38;;;3.13;;
33279;SDS011;20403;43.114;12.434;2023-07-31T06:19:43;12.35;;;3.60;;
33279;SDS011;20403;43.114;12.434;2023-07-31T06:22:08;8.60;;;2.78;;
33279;SDS011;20403;43.114;12.434;2023-07-31T06:24:35;7.25;;;3.03;;
33279;SDS011;20403;43.114;12.434;2023-07-31T06:27:00;10.68;;;2.90;;
33279;SDS011;20403;43.114;12.434;2023-07-31T06:29:28;8.57;;;2.58;;
33279;SDS011;20403;43.114;12.434;2023-07-31T06:31:54;50.30;;;7.45;;
33279;SDS011;20403;43.114;12.434;2023-07-31T06:34:20;28.92;;;5.15;;
33279;SDS011;20403;43.114;12.434;2023-07-31T06:36:45;24.70;;;4.40;;
33279;SDS011;20403;43.114;12.434;2023-07-31T06:39:10;18.80;;;3.70;;
33279;SDS011;20403;43.114;12.434;2023-07-31T06:41:37;8.52;;;3.17;;
33279;SDS011;20403;43.114;12.434;2023-07-31T06:44:03;8.15;;;3.03;;
33279;SDS011;20403;43.114;12.434;2023-07-31T06:46:28;14.18;;;3.03;;
33279;SDS011;20403;43.114;12.434;2023-07-31T06:48:54;13.38;;;3.20;;
33279;SDS011;20403;43.114;12.434;2023-07-31T06:51:20;9.77;;;2.90;;
33279;SDS011;20403;43.114;12.434;2023-07-31T06:53:45;6.55;;;2.50;;
33279;SDS011;20403;43.114;12.434;2023-07-31T06:56:11;7.45;;;2.15;;
33279;SDS011;20403;43.114;12.434;2023-07-31T06:58:36;7.35;;;3.75;;
33279;SDS011;20403;43.114;12.434;2023-07-31T07:01:02;19.73;;;4.20;;
33279;SDS011;20403;43.114;12.434;2023-07-31T07:03:27;9.57;;;2.72;;
33279;SDS011;20403;43.114;12.434;2023-07-31T07:05:52;5.45;;;2.60;;
33279;SDS011;20403;43.114;12.434;2023-07-31T07:08:18;9.13;;;2.75;;
33279;SDS011;20403;43.114;12.434;2023-07-31T07:10:43;8.98;;;2.50;;
33279;SDS011;20403;43.114;12.434;2023-07-31T07:13:09;8.80;;;2.67;;
33279;SDS011;20403;43.114;12.434;2023-07-31T07:15:34;6.75;;;2.58;;
33279;SDS011;20403;43.114;12.434;2023-07-31T07:18:00;6.22;;;2.60;;
33279;SDS011;20403;43.114;12.434;2023-07-31T07:20:25;4.68;;;2.55;;
33279;SDS011;20403;43.114;12.434;2023-07-31T07:22:51;8.38;;;2.70;;
33279;SDS011;20403;43.114;12.434;2023-07-31T07:25:16;10.15;;;2.70;;
33279;SDS011;20403;43.114;12.434;2023-07-31T07:27:42;5.70;;;2.40;;
33279;SDS011;20403;43.114;12.434;2023-07-31T07:30:07;5.72;;;2.00;;
33279;SDS011;20403;43.114;12.434;2023-07-31T07:32:33;4.80;;;2.30;;
33279;SDS011;20403;43.114;12.434;2023-07-31T07:34:59;6.45;;;2.63;;
33279;SDS011;20403;43.114;12.434;2023-07-31T07:37:24;4.13;;;2.30;;
33279;SDS011;20403;43.114;12.434;2023-07-31T07:39:49;8.63;;;2.17;;
33279;SDS011;20403;43.114;12.434;2023-07-31T07:42:15;5.72;;;2.15;;
33279;SDS011;20403;43.114;12.434;2023-07-31T07:44:40;8.30;;;2.17;;
33279;SDS011;20403;43.114;12.434;2023-07-31T07:47:06;7.15;;;1.90;;
33279;SDS011;20403;43.114;12.434;2023-07-31T07:49:32;6.22;;;2.30;;
33279;SDS011;20403;43.114;12.434;2023-07-31T07:51:58;6.82;;;2.10;;
33279;SDS011;20403;43.114;12.434;2023-07-31T07:54:23;6.93;;;2.50;;
33279;SDS011;20403;43.114;12.434;2023-07-31T07:56:49;5.30;;;2.00;;
33279;SDS011;20403;43.114;12.434;2023-07-31T07:59:15;4.65;;;1.83;;
33279;SDS011;20403;43.114;12.434;2023-07-31T08:01:40;6.95;;;1.92;;
33279;SDS011;20403;43.114;12.434;2023-07-31T08:04:06;9.52;;;2.20;;
33279;SDS011;20403;43.114;12.434;2023-07-31T08:06:31;4.28;;;1.70;;
33279;SDS011;20403;43.114;12.434;2023-07-31T08:08:56;10.32;;;2.85;;
33279;SDS011;20403;43.114;12.434;2023-07-31T08:11:22;7.43;;;2.22;;
33279;SDS011;20403;43.114;12.434;2023-07-31T08:13:48;4.43;;;2.22;;
33279;SDS011;20403;43.114;12.434;2023-07-31T08:16:14;12.38;;;2.15;;
33279;SDS011;20403;43.114;12.434;2023-07-31T08:18:40;4.68;;;1.70;;
33279;SDS011;20403;43.114;12.434;2023-07-31T08:21:05;4.07;;;1.83;;
33279;SDS011;20403;43.114;12.434;2023-07-31T08:23:31;4.43;;;1.90;;
33279;SDS011;20403;43.114;12.434;2023-07-31T08:25:56;3.15;;;1.63;;
33279;SDS011;20403;43.114;12.434;2023-07-31T08:28:22;5.85;;;1.65;;
33279;SDS011;20403;43.114;12.434;2023-07-31T08:30:47;3.97;;;1.50;;
33279;SDS011;20403;43.114;12.434;2023-07-31T08:33:12;3.70;;;1.75;;
33279;SDS011;20403;43.114;12.434;2023-07-31T08:35:38;3.33;;;1.50;;
33279;SDS011;20403;43.114;12.434;2023-07-31T08:38:03;2.92;;;1.52;;
33279;SDS011;20403;43.114;12.434;2023-07-31T08:40:29;3.45;;;1.88;;
33279;SDS011;20403;43.114;12.434;2023-07-31T08:42:54;5.35;;;1.60;;
33279;SDS011;20403;43.114;12.434;2023-07-31T08:45:27;4.13;;;1.70;;
33279;SDS011;20403;43.114;12.434;2023-07-31T08:47:53;10.65;;;1.83;;
33279;SDS011;20403;43.114;12.434;2023-07-31T08:50:20;6.88;;;1.90;;
33279;SDS011;20403;43.114;12.434;2023-07-31T08:52:47;5.47;;;1.85;;
33279;SDS011;20403;43.114;12.434;2023-07-31T08:55:14;4.80;;;2.13;;
33279;SDS011;20403;43.114;12.434;2023-07-31T08:57:39;3.63;;;1.70;;
33279;SDS011;20403;43.114;12.434;2023-07-31T09:00:07;3.22;;;1.80;;
33279;SDS011;20403;43.114;12.434;2023-07-31T09:02:48;3.47;;;1.73;;
33279;SDS011;20403;43.114;12.434;2023-07-31T09:05:20;8.60;;;2.20;;
33279;SDS011;20403;43.114;12.434;2023-07-31T09:07:47;16.10;;;2.20;;
33279;SDS011;20403;43.114;12.434;2023-07-31T09:10:14;3.88;;;1.67;;
33279;SDS011;20403;43.114;12.434;2023-07-31T09:12:39;3.20;;;1.98;;
33279;SDS011;20403;43.114;12.434;2023-07-31T09:15:05;7.10;;;1.77;;
33279;SDS011;20403;43.114;12.434;2023-07-31T09:17:34;2.30;;;1.73;;
33279;SDS011;20403;43.114;12.434;2023-07-31T09:20:14;5.05;;;2.47;;
33279;SDS011;20403;43.114;12.434;2023-07-31T09:22:40;6.15;;;1.90;;
33279;SDS011;20403;43.114;12.434;2023-07-31T09:25:19;4.63;;;2.25;;
33279;SDS011;20403;43.114;12.434;2023-07-31T09:27:59;3.90;;;1.80;;
33279;SDS011;20403;43.114;12.434;2023-07-31T09:30:26;5.75;;;2.08;;
33279;SDS011;20403;43.114;12.434;2023-07-31T09:32:59;3.33;;;2.03;;
33279;SDS011;20403;43.114;12.434;2023-07-31T09:35:34;9.52;;;2.33;;
33279;SDS011;20403;43.114;12.434;2023-07-31T09:38:02;3.30;;;1.80;;
33279;SDS011;20403;43.114;12.434;2023-07-31T09:40:35;5.15;;;1.90;;
33279;SDS011;20403;43.114;12.434;2023-07-31T09:43:09;5.18;;;2.00;;
33279;SDS011;20403;43.114;12.434;2023-07-31T09:45:38;10.25;;;2.10;;
33279;SDS011;20403;43.114;12.434;2023-07-31T09:48:07;7.15;;;2.25;;
33279;SDS011;20403;43.114;12.434;2023-07-31T09:50:36;6.43;;;2.10;;
33279;SDS011;20403;43.114;12.434;2023-07-31T09:53:03;3.85;;;1.85;;
33279;SDS011;20403;43.114;12.434;2023-07-31T09:55:28;5.95;;;2.20;;
33279;SDS011;20403;43.114;12.434;2023-07-31T09:57:54;6.97;;;2.53;;
33279;SDS011;20403;43.114;12.434;2023-07-31T10:00:22;2.75;;;1.88;;
33279;SDS011;20403;43.114;12.434;2023-07-31T10:02:50;4.32;;;2.35;;
33279;SDS011;20403;43.114;12.434;2023-07-31T10:05:16;3.80;;;2.20;;
33279;SDS011;20403;43.114;12.434;2023-07-31T10:07:44;3.78;;;2.08;;
33279;SDS011;20403;43.114;12.434;2023-07-31T10:10:15;8.23;;;2.22;;
33279;SDS011;20403;43.114;12.434;2023-07-31T10:12:41;4.93;;;2.20;;
33279;SDS011;20403;43.114;12.434;2023-07-31T10:15:08;6.15;;;2.28;;
33279;SDS011;20403;43.114;12.434;2023-07-31T10:17:35;6.25;;;2.33;;
33279;SDS011;20403;43.114;12.434;2023-07-31T10:20:02;5.15;;;2.03;;
33279;SDS011;20403;43.114;12.434;2023-07-31T10:22:30;6.63;;;2.17;;
33279;SDS011;20403;43.114;12.434;2023-07-31T10:24:57;4.45;;;2.00;;
33279;SDS011;20403;43.114;12.434;2023-07-31T10:27:24;4.18;;;2.13;;
33279;SDS011;20403;43.114;12.434;2023-07-31T10:29:49;6.80;;;2.15;;
33279;SDS011;20403;43.114;12.434;2023-07-31T10:32:17;11.07;;;2.40;;
33279;SDS011;20403;43.114;12.434;2023-07-31T10:34:43;5.40;;;1.95;;
33279;SDS011;20403;43.114;12.434;2023-07-31T10:37:22;7.82;;;2.45;;
33279;SDS011;20403;43.114;12.434;2023-07-31T10:40:03;5.15;;;2.22;;
33279;SDS011;20403;43.114;12.434;2023-07-31T10:45:04;7.07;;;2.30;;
33279;SDS011;20403;43.114;12.434;2023-07-31T10:47:38;13.23;;;3.38;;
33279;SDS011;20403;43.114;12.434;2023-07-31T10:50:14;4.50;;;2.60;;
33279;SDS011;20403;43.114;12.434;2023-07-31T10:52:46;3.53;;;2.00;;
33279;SDS011;20403;43.114;12.434;2023-07-31T10:55:30;6.93;;;2.45;;
33279;SDS011;20403;43.114;12.434;2023-07-31T11:00:36;4.03;;;2.00;;
33279;SDS011;20403;43.114;12.434;2023-07-31T11:03:13;7.95;;;1.90;;
33279;SDS011;20403;43.114;12.434;2023-07-31T11:05:41;6.35;;;2.00;;
33279;SDS011;20403;43.114;12.434;2023-07-31T11:08:26;3.50;;;1.98;;
33279;SDS011;20403;43.114;12.434;2023-07-31T11:13:34;5.55;;;2.22;;
33279;SDS011;20403;43.114;12.434;2023-07-31T11:16:04;6.28;;;2.80;;
33279;SDS011;20403;43.114;12.434;2023-07-31T11:18:29;4.28;;;2.20;;
33279;SDS011;20403;43.114;12.434;2023-07-31T11:20:55;4.43;;;2.33;;
33279;SDS011;20403;43.114;12.434;2023-07-31T11:23:21;6.30;;;2.05;;
33279;SDS011;20403;43.114;12.434;2023-07-31T11:25:47;5.40;;;2.08;;
33279;SDS011;20403;43.114;12.434;2023-07-31T11:28:13;4.03;;;2.20;;
33279;SDS011;20403;43.114;12.434;2023-07-31T11:30:41;6.22;;;2.75;;
33279;SDS011;20403;43.114;12.434;2023-07-31T11:33:08;6.15;;;2.47;;
33279;SDS011;20403;43.114;12.434;2023-07-31T11:35:42;8.95;;;2.42;;
33279;SDS011;20403;43.114;12.434;2023-07-31T11:38:20;3.30;;;2.08;;
33279;SDS011;20403;43.114;12.434;2023-07-31T11:40:50;8.90;;;2.25;;
33279;SDS011;20403;43.114;12.434;2023-07-31T11:43:17;5.47;;;2.30;;
33279;SDS011;20403;43.114;12.434;2023-07-31T11:45:47;3.00;;;1.77;;
33279;SDS011;20403;43.114;12.434;2023-07-31T11:48:23;5.05;;;2.30;;
33279;SDS011;20403;43.114;12.434;2023-07-31T11:50:52;4.75;;;2.30;;
33279;SDS011;20403;43.114;12.434;2023-07-31T11:53:20;8.20;;;1.95;;
33279;SDS011;20403;43.114;12.434;2023-07-31T11:55:54;5.70;;;2.22;;
33279;SDS011;20403;43.114;12.434;2023-07-31T11:58:22;7.30;;;2.00;;
33279;SDS011;20403;43.114;12.434;2023-07-31T12:00:48;2.78;;;1.95;;
33279;SDS011;20403;43.114;12.434;2023-07-31T12:03:14;3.75;;;1.85;;
33279;SDS011;20403;43.114;12.434;2023-07-31T12:05:40;3.55;;;2.30;;
33279;SDS011;20403;43.114;12.434;2023-07-31T12:08:09;3.80;;;2.00;;
33279;SDS011;20403;43.114;12.434;2023-07-31T12:10:36;6.15;;;2.20;;
33279;SDS011;20403;43.114;12.434;2023-07-31T12:15:41;6.38;;;2.10;;
33279;SDS011;20403;43.114;12.434;2023-07-31T12:18:09;5.18;;;2.05;;
33279;SDS011;20403;43.114;12.434;2023-07-31T12:20:39;3.58;;;2.25;;
33279;SDS011;20403;43.114;12.434;2023-07-31T12:23:06;6.45;;;2.20;;
33279;SDS011;20403;43.114;12.434;2023-07-31T12:25:32;5.80;;;2.22;;
33279;SDS011;20403;43.114;12.434;2023-07-31T12:28:04;6.00;;;2.25;;
33279;SDS011;20403;43.114;12.434;2023-07-31T12:30:33;5.60;;;2.05;;
33279;SDS011;20403;43.114;12.434;2023-07-31T12:33:03;5.22;;;2.05;;
33279;SDS011;20403;43.114;12.434;2023-07-31T12:35:36;3.17;;;2.05;;
33279;SDS011;20403;43.114;12.434;2023-07-31T12:38:03;5.03;;;1.85;;
33279;SDS011;20403;43.114;12.434;2023-07-31T12:40:29;5.47;;;2.20;;
33279;SDS011;20403;43.114;12.434;2023-07-31T12:42:54;6.47;;;2.08;;
33279;SDS011;20403;43.114;12.434;2023-07-31T12:45:20;5.13;;;1.75;;
33279;SDS011;20403;43.114;12.434;2023-07-31T12:47:46;5.82;;;1.83;;
33279;SDS011;20403;43.114;12.434;2023-07-31T12:50:12;7.28;;;2.08;;
33279;SDS011;20403;43.114;12.434;2023-07-31T12:52:37;3.47;;;1.95;;
33279;SDS011;20403;43.114;12.434;2023-07-31T12:55:03;14.98;;;3.53;;
33279;SDS011;20403;43.114;12.434;2023-07-31T12:57:29;4.97;;;2.45;;
33279;SDS011;20403;43.114;12.434;2023-07-31T12:59:55;3.13;;;1.80;;
33279;SDS011;20403;43.114;12.434;2023-07-31T13:02:21;5.78;;;1.85;;
33279;SDS011;20403;43.114;12.434;2023-07-31T13:04:46;2.60;;;1.88;;
33279;SDS011;20403;43.114;12.434;2023-07-31T13:07:11;12.77;;;2.10;;
33279;SDS011;20403;43.114;12.434;2023-07-31T13:09:37;3.20;;;2.05;;
33279;SDS011;20403;43.114;12.434;2023-07-31T13:12:02;5.13;;;2.47;;
33279;SDS011;20403;43.114;12.434;2023-07-31T13:14:28;5.43;;;2.10;;
33279;SDS011;20403;43.114;12.434;2023-07-31T13:16:53;3.40;;;2.00;;
33279;SDS011;20403;43.114;12.434;2023-07-31T13:19:19;8.63;;;2.30;;
33279;SDS011;20403;43.114;12.434;2023-07-31T13:21:44;4.18;;;1.80;;
33279;SDS011;20403;43.114;12.434;2023-07-31T13:24:09;3.60;;;2.30;;
33279;SDS011;20403;43.114;12.434;2023-07-31T13:26:36;3.92;;;1.90;;
33279;SDS011;20403;43.114;12.434;2023-07-31T13:29:02;2.78;;;1.90;;
33279;SDS011;20403;43.114;12.434;2023-07-31T13:31:27;7.32;;;2.22;;
33279;SDS011;20403;43.114;12.434;2023-07-31T13:33:53;5.60;;;1.80;;
33279;SDS011;20403;43.114;12.434;2023-07-31T13:36:18;5.60;;;1.95;;
33279;SDS011;20403;43.114;12.434;2023-07-31T13:38:44;2.47;;;1.80;;
33279;SDS011;20403;43.114;12.434;2023-07-31T13:41:09;4.20;;;2.15;;
33279;SDS011;20403;43.114;12.434;2023-07-31T13:43:35;4.07;;;1.90;;
33279;SDS011;20403;43.114;12.434;2023-07-31T13:46:01;5.68;;;2.30;;
33279;SDS011;20403;43.114;12.434;2023-07-31T13:48:31;6.10;;;2.03;;
33279;SDS011;20403;43.114;12.434;2023-07-31T13:50:59;7.70;;;2.28;;
33279;SDS011;20403;43.114;12.434;2023-07-31T13:53:25;4.88;;;2.03;;
33279;SDS011;20403;43.114;12.434;2023-07-31T13:55:50;8.60;;;2.30;;
33279;SDS011;20403;43.114;12.434;2023-07-31T13:58:15;4.18;;;2.03;;
33279;SDS011;20403;43.114;12.434;2023-07-31T14:00:41;7.03;;;2.25;;
33279;SDS011;20403;43.114;12.434;2023-07-31T14:03:07;4.38;;;1.90;;
33279;SDS011;20403;43.114;12.434;2023-07-31T14:05:32;9.27;;;2.25;;
33279;SDS011;20403;43.114;12.434;2023-07-31T14:07:58;5.25;;;2.08;;
33279;SDS011;20403;43.114;12.434;2023-07-31T14:10:23;7.57;;;2.05;;
33279;SDS011;20403;43.114;12.434;2023-07-31T14:12:48;5.95;;;2.28;;
33279;SDS011;20403;43.114;12.434;2023-07-31T14:15:14;4.32;;;2.20;;
33279;SDS011;20403;43.114;12.434;2023-07-31T14:17:39;5.45;;;2.53;;
33279;SDS011;20403;43.114;12.434;2023-07-31T14:20:05;5.10;;;2.40;;
33279;SDS011;20403;43.114;12.434;2023-07-31T14:22:31;5.60;;;2.25;;
33279;SDS011;20403;43.114;12.434;2023-07-31T14:24:58;7.65;;;2.40;;
33279;SDS011;20403;43.114;12.434;2023-07-31T14:27:23;4.13;;;2.58;;
33279;SDS011;20403;43.114;12.434;2023-07-31T14:29:49;6.38;;;2.80;;
33279;SDS011;20403;43.114;12.434;2023-07-31T14:32:14;8.63;;;2.22;;
33279;SDS011;20403;43.114;12.434;2023-07-31T14:34:40;5.13;;;2.15;;
33279;SDS011;20403;43.114;12.434;2023-07-31T14:37:06;6.97;;;2.70;;
33279;SDS011;20403;43.114;12.434;2023-07-31T14:39:31;5.97;;;2.17;;
33279;SDS011;20403;43.114;12.434;2023-07-31T14:41:56;4.15;;;2.30;;
33279;SDS011;20403;43.114;12.434;2023-07-31T14:44:22;3.45;;;2.03;;
33279;SDS011;20403;43.114;12.434;2023-07-31T14:46:47;3.65;;;2.13;;
33279;SDS011;20403;43.114;12.434;2023-07-31T14:49:13;4.80;;;2.15;;